Time;durP1;ratioP1;P1;durP2;ratioP2;P2;SDS_P1;SDS_P2;PMS_P1;PMS_P2;Temp;Humidity;BMP_temperature;BMP_pressure;BME280_temperature;BME280_humidity;BME280_pressure;Samples;Min_cycle;Max_cycle;Signal;HPM_P1;HPM_P2
2023/01/12 00:02:26;;;;;;;9.93;3.35;;;;;;;-6.70;57.75;102377.17;1878342;75;21686;-57
2023/01/12 00:04:54;;;;;;;28.27;4.40;;;;;;;-6.71;57.73;102374.14;1881863;75;21746;-59
2023/01/12 00:07:23;;;;;;;3.77;3.47;;;;;;;-6.74;57.79;102368.83;1871908;77;21040;-60
2023/01/12 00:09:51;;;;;;;6.28;2.37;;;;;;;-6.75;57.82;102372.20;1886776;75;21024;-61
2023/01/12 00:12:20;;;;;;;22.75;2.95;;;;;;;-6.80;57.93;102367.20;1883725;75;21023;-59
2023/01/12 00:14:49;;;;;;;3.95;2.60;;;;;;;-6.85;58.05;102374.61;1871817;77;21121;-48
2023/01/12 00:17:18;;;;;;;5.40;2.58;;;;;;;-6.85;58.02;102368.61;1871827;77;21020;-46
2023/01/12 00:19:50;;;;;;;5.00;2.45;;;;;;;-6.85;57.91;102364.36;1871462;77;21634;-47
2023/01/12 00:22:19;;;;;;;13.38;3.30;;;;;;;-6.85;57.92;102368.61;1871960;76;21035;-46
2023/01/12 00:24:48;;;;;;;12.03;6.65;;;;;;;-6.86;57.97;102366.83;1874359;75;21036;-57
2023/01/12 00:27:19;;;;;;;11.45;5.10;;;;;;;-6.90;58.46;102364.89;1871814;77;21162;-57
2023/01/12 00:29:50;;;;;;;10.85;4.25;;;;;;;-6.97;59.10;102361.48;1894841;75;21612;-58
2023/01/12 00:32:20;;;;;;;10.38;4.60;;;;;;;-7.00;59.37;102364.77;1885345;75;21541;-60
2023/01/12 00:34:49;;;;;;;13.10;4.25;;;;;;;-7.00;59.12;102360.92;1873504;75;21111;-56
2023/01/12 00:37:18;;;;;;;5.70;3.05;;;;;;;-7.00;59.01;102355.39;1878931;75;21047;-58
2023/01/12 00:39:47;;;;;;;3.42;1.80;;;;;;;-7.01;59.00;102354.92;1871832;77;21528;-59
2023/01/12 00:45:24;;;;;;;8.28;3.95;;;;;;;-7.04;58.91;102344.90;1812951;79;21079;-48
2023/01/12 00:47:53;;;;;;;1.20;1.20;;;;;;;-7.04;58.84;102349.61;1813143;79;21031;-48
2023/01/12 00:50:22;;;;;;;17.95;4.35;;;;;;;-7.03;58.85;102349.20;1857908;74;20997;-48
2023/01/12 00:52:51;;;;;;;7.28;3.85;;;;;;;-7.05;58.71;102347.83;1900192;75;21499;-46
2023/01/12 00:55:20;;;;;;;4.53;3.37;;;;;;;-7.06;58.76;102353.77;1872669;76;21037;-45
2023/01/12 00:57:48;;;;;;;14.28;6.95;;;;;;;-7.16;59.15;102356.56;1872637;75;21063;-48
2023/01/12 01:00:18;;;;;;;10.32;4.37;;;;;;;-7.21;59.75;102346.44;1892515;74;21079;-48
2023/01/12 01:02:46;;;;;;;20.72;5.40;;;;;;;-7.28;59.92;102346.91;1891336;76;21059;-46
2023/01/12 01:05:16;;;;;;;4.70;1.98;;;;;;;-7.37;60.66;102351.06;1891510;76;21093;-45
2023/01/12 01:07:46;;;;;;;11.83;4.75;;;;;;;-7.40;60.54;102342.79;1891506;76;21027;-46
2023/01/12 01:10:16;;;;;;;8.68;4.47;;;;;;;-7.47;60.83;102341.05;1918125;74;21471;-47
2023/01/12 01:12:45;;;;;;;14.10;5.45;;;;;;;-7.52;61.05;102336.96;1924548;74;21031;-48
2023/01/12 01:15:13;;;;;;;10.85;4.58;;;;;;;-7.59;61.49;102334.42;1924462;74;21086;-44
2023/01/12 01:17:42;;;;;;;13.98;6.45;;;;;;;-7.60;61.49;102325.36;1924527;74;21573;-47
2023/01/12 01:20:11;;;;;;;7.75;6.40;;;;;;;-7.59;61.44;102324.59;1924637;74;21122;-48
2023/01/12 01:22:40;;;;;;;10.70;3.85;;;;;;;-7.60;61.88;102323.71;1924689;74;21078;-45
2023/01/12 01:25:09;;;;;;;4.95;3.62;;;;;;;-7.62;61.83;102332.06;1924523;74;21101;-48
2023/01/12 01:27:38;;;;;;;10.55;3.67;;;;;;;-7.69;62.06;102326.09;1924647;74;21024;-47
2023/01/12 01:30:08;;;;;;;9.55;3.85;;;;;;;-7.73;62.41;102326.70;1909030;74;21043;-45
2023/01/12 01:32:37;;;;;;;16.02;3.95;;;;;;;-7.77;62.68;102323.94;1891493;76;21030;-45
2023/01/12 01:35:06;;;;;;;15.88;5.80;;;;;;;-7.80;62.62;102327.61;1891371;76;21035;-47
2023/01/12 01:37:34;;;;;;;8.98;4.85;;;;;;;-7.83;63.11;102322.30;1891489;76;21097;-46
2023/01/12 01:40:04;;;;;;;7.33;4.12;;;;;;;-7.83;63.22;102319.75;1891427;76;21039;-45
2023/01/12 01:42:32;;;;;;;11.97;4.87;;;;;;;-7.79;62.88;102315.70;1913275;74;21055;-45
2023/01/12 01:45:03;;;;;;;3.65;2.25;;;;;;;-7.76;62.52;102310.38;1924483;74;21023;-49
2023/01/12 01:47:46;;;;;;;9.18;2.52;;;;;;;-7.69;62.23;102318.41;1924587;74;21036;-47
2023/01/12 01:50:23;;;;;;;1.27;0.85;;;;;;;-7.66;62.15;102319.89;1923842;74;21549;-46
2023/01/12 01:52:58;;;;;;;4.55;2.47;;;;;;;-7.66;62.25;102323.32;1891359;76;21051;-45
2023/01/12 01:55:32;;;;;;;4.45;2.58;;;;;;;-7.66;62.07;102322.04;1891383;76;21141;-46
2023/01/12 01:58:23;;;;;;;6.83;2.45;;;;;;;-7.66;61.91;102321.17;1891417;76;21435;-47
2023/01/12 02:00:53;;;;;;;1.32;1.25;;;;;;;-7.64;61.95;102314.47;1891923;74;21094;-47
2023/01/12 02:03:23;;;;;;;13.00;5.08;;;;;;;-7.61;61.87;102309.55;1923215;74;21536;-45
2023/01/12 02:05:54;;;;;;;2.47;2.10;;;;;;;-7.60;61.76;102304.90;1924588;74;21105;-45
2023/01/12 02:08:38;;;;;;;2.90;2.22;;;;;;;-7.60;61.87;102301.97;1924662;74;21012;-48
2023/01/12 02:16:19;;;;;;;2.62;1.30;;;;;;;-7.59;61.73;102305.00;1920842;74;21259;-47
2023/01/12 02:16:27;;;;;;;6.25;2.80;;;;;;;-7.60;61.53;102299.41;1891553;76;21102;-49
2023/01/12 02:19:08;;;;;;;3.52;1.90;;;;;;;-7.60;61.44;102302.34;1891456;76;21455;-44
2023/01/12 02:21:45;;;;;;;3.60;1.77;;;;;;;-7.63;61.32;102297.94;1897551;74;21111;-48
2023/01/12 02:24:46;;;;;;;5.33;2.90;;;;;;;-7.64;61.32;102296.56;1874116;74;21113;-46
2023/01/12 02:27:49;;;;;;;6.65;2.87;;;;;;;-7.66;61.23;102305.41;1924511;74;21043;-44
2023/01/12 02:30:38;;;;;;;13.10;3.83;;;;;;;-7.66;61.18;102300.30;1923145;74;21553;-47
2023/01/12 02:33:30;;;;;;;10.20;4.10;;;;;;;-7.67;61.17;102301.48;1920841;74;21129;-47
2023/01/12 02:36:14;;;;;;;5.92;3.70;;;;;;;-7.67;61.09;102294.72;1924522;74;21028;-47
2023/01/12 02:38:48;;;;;;;6.08;2.70;;;;;;;-7.68;61.10;102294.21;1924085;74;21039;-48
2023/01/12 02:44:42;;;;;;;5.50;2.40;;;;;;;-7.68;60.99;102294.62;1921801;74;21020;-48
2023/01/12 02:47:13;;;;;;;6.15;2.22;;;;;;;-7.70;60.94;102297.48;1923883;74;21039;-46
2023/01/12 02:49:45;;;;;;;1.30;1.20;;;;;;;-7.69;60.94;102306.91;1924179;74;21039;-45
2023/01/12 02:52:17;;;;;;;14.95;3.62;;;;;;;-7.68;60.87;102302.29;1924251;74;21039;-44
2023/01/12 02:54:49;;;;;;;6.95;3.27;;;;;;;-7.70;60.85;102302.19;1898573;74;21117;-45
2023/01/12 02:57:19;;;;;;;5.95;3.25;;;;;;;-7.71;60.91;102304.25;1891344;76;21090;-45
2023/01/12 02:59:49;;;;;;;3.95;2.02;;;;;;;-7.70;60.82;102310.27;1891240;76;21150;-49
2023/01/12 03:02:24;;;;;;;14.28;5.25;;;;;;;-7.72;60.89;102307.61;1891352;76;21016;-50
2023/01/12 03:04:54;;;;;;;11.38;4.65;;;;;;;-7.78;61.04;102301.73;1893529;74;21530;-49
2023/01/12 03:07:44;;;;;;;8.50;4.62;;;;;;;-7.84;61.35;102301.75;1891580;76;21457;-47
2023/01/12 03:10:40;;;;;;;7.92;2.33;;;;;;;-7.88;61.49;102302.36;1887147;75;21123;-48
2023/01/12 03:13:11;;;;;;;15.43;4.90;;;;;;;-7.91;61.62;102303.06;1923075;74;21104;-45
2023/01/12 03:15:46;;;;;;;3.80;1.85;;;;;;;-7.95;61.86;102301.08;1923466;74;21031;-43
2023/01/12 03:18:20;;;;;;;14.18;5.40;;;;;;;-7.95;61.75;102303.64;1924373;74;21075;-43
2023/01/12 03:20:51;;;;;;;5.72;3.10;;;;;;;-7.94;61.79;102301.99;1921689;74;21040;-46
2023/01/12 03:23:23;;;;;;;8.83;4.37;;;;;;;-7.98;62.33;102300.92;1922126;74;21192;-45
2023/01/12 03:25:54;;;;;;;6.37;2.80;;;;;;;-8.04;62.44;102299.24;1923753;74;21152;-46
2023/01/12 03:28:26;;;;;;;8.48;3.40;;;;;;;-8.04;62.27;102297.97;1924492;74;21427;-45
2023/01/12 03:31:00;;;;;;;6.75;4.30;;;;;;;-8.03;62.10;102304.86;1924296;74;21032;-46
2023/01/12 03:33:29;;;;;;;9.98;5.30;;;;;;;-8.01;62.02;102290.49;1921701;74;21003;-46
2023/01/12 03:36:10;;;;;;;13.68;7.15;;;;;;;-7.97;61.90;102292.44;1924525;74;21086;-48
2023/01/12 03:38:51;;;;;;;8.33;5.10;;;;;;;-7.99;62.18;102292.75;1924306;74;21118;-45
2023/01/12 03:41:31;;;;;;;3.92;2.70;;;;;;;-8.03;62.49;102287.84;1923596;74;21109;-48
2023/01/12 03:44:02;;;;;;;9.23;4.47;;;;;;;-8.10;62.73;102291.20;1901668;74;21039;-44
2023/01/12 03:46:34;;;;;;;13.22;5.42;;;;;;;-8.16;62.85;102283.64;1891424;76;21007;-46
2023/01/12 03:49:14;;;;;;;8.55;3.87;;;;;;;-8.18;62.66;102290.33;1890295;75;21039;-45
2023/01/12 03:51:46;;;;;;;17.67;5.40;;;;;;;-8.22;62.77;102289.66;1912569;74;21526;-47
2023/01/12 03:54:17;;;;;;;4.20;2.05;;;;;;;-8.23;62.73;102286.60;1924471;74;21083;-47
2023/01/12 03:56:46;;;;;;;11.90;5.58;;;;;;;-8.23;62.66;102285.73;1924556;74;21090;-49
2023/01/12 03:59:15;;;;;;;8.33;3.80;;;;;;;-8.25;62.86;102280.52;1924433;74;21448;-46
2023/01/12 04:01:45;;;;;;;18.95;4.97;;;;;;;-8.27;63.13;102281.22;1906476;74;21049;-47
2023/01/12 04:04:14;;;;;;;8.53;3.60;;;;;;;-8.29;63.24;102277.69;1905110;75;21456;-47
2023/01/12 04:06:42;;;;;;;17.95;5.97;;;;;;;-8.37;63.32;102277.22;1905157;75;21040;-47
2023/01/12 04:09:11;;;;;;;4.85;4.25;;;;;;;-8.39;63.50;102282.23;1905182;75;21106;-47
2023/01/12 04:14:27;;;;;;;3.90;3.60;;;;;;;-8.40;63.37;102289.39;1905153;75;21515;-44
2023/01/12 04:16:56;;;;;;;8.60;2.95;;;;;;;-8.37;63.26;102288.72;1905062;75;21126;-43
2023/01/12 04:19:24;;;;;;;5.85;1.02;;;;;;;-8.36;63.13;102290.47;1905153;75;21036;-45
2023/01/12 04:24:39;;;;;;;2.25;1.95;;;;;;;-8.32;63.10;102284.75;1872699;76;21047;-46
2023/01/12 04:27:08;;;;;;;6.58;3.17;;;;;;;-8.29;62.92;102286.64;1837431;78;21090;-47
2023/01/12 04:29:37;;;;;;;3.05;2.80;;;;;;;-8.28;62.77;102288.02;1872707;76;21419;-48
2023/01/12 04:32:06;;;;;;;6.15;2.42;;;;;;;-8.26;62.72;102282.97;1837488;78;21039;-48
2023/01/12 04:34:35;;;;;;;8.48;3.80;;;;;;;-8.26;62.70;102285.53;1901287;75;21068;-47
2023/01/12 04:37:04;;;;;;;4.45;2.30;;;;;;;-8.23;62.64;102280.62;1905186;75;21103;-44
2023/01/12 04:39:32;;;;;;;9.33;4.85;;;;;;;-8.24;62.71;102277.59;1905078;75;21040;-48
2023/01/12 04:42:01;;;;;;;1.40;1.30;;;;;;;-8.24;62.73;102273.36;1905104;75;21032;-44
2023/01/12 04:44:31;;;;;;;4.62;3.00;;;;;;;-8.23;62.67;102269.98;1902869;75;21122;-50
2023/01/12 04:46:59;;;;;;;8.30;2.52;;;;;;;-8.23;62.62;102275.10;1905149;75;21573;-50
2023/01/12 04:49:28;;;;;;;1.00;1.00;;;;;;;-8.22;62.55;102271.77;1905170;75;21083;-48
2023/01/12 04:51:57;;;;;;;5.97;3.22;;;;;;;-8.20;62.48;102267.63;1902785;75;21060;-48
2023/01/12 04:54:25;;;;;;;7.60;4.20;;;;;;;-8.17;62.46;102269.11;1905075;75;21009;-46
2023/01/12 04:56:54;;;;;;;5.67;3.40;;;;;;;-8.15;62.43;102270.09;1905326;75;21475;-47
2023/01/12 04:59:23;;;;;;;7.03;2.83;;;;;;;-8.12;62.40;102266.83;1900679;74;21102;-45
2023/01/12 05:01:51;;;;;;;4.83;2.95;;;;;;;-8.08;62.28;102266.62;1915521;74;21141;-44
2023/01/12 05:04:20;;;;;;;5.28;3.58;;;;;;;-8.04;62.21;102278.79;1901184;74;21047;-47
2023/01/12 05:06:48;;;;;;;14.63;4.90;;;;;;;-8.04;62.14;102272.40;1892365;74;21047;-46
2023/01/12 05:12:04;;;;;;;19.02;6.45;;;;;;;-8.04;62.10;102269.47;1924713;74;21020;-47
2023/01/12 05:14:33;;;;;;;4.55;2.85;;;;;;;-8.01;62.04;102273.47;1924747;74;21097;-44
2023/01/12 05:17:01;;;;;;;10.82;3.95;;;;;;;-7.96;61.96;102267.37;1912028;74;21039;-41
2023/01/12 05:19:30;;;;;;;12.78;5.78;;;;;;;-7.92;61.96;102262.93;1891311;76;21201;-43
2023/01/12 05:21:58;;;;;;;19.02;6.20;;;;;;;-7.89;61.99;102269.52;1891483;76;21079;-46
2023/01/12 05:24:27;;;;;;;26.70;7.10;;;;;;;-7.91;62.25;102271.48;1891384;76;21046;-43
2023/01/12 05:26:56;;;;;;;7.90;3.27;;;;;;;-7.95;62.59;102262.73;1895757;74;21036;-42
2023/01/12 05:29:24;;;;;;;14.40;5.60;;;;;;;-7.94;62.71;102269.63;1924469;74;21101;-42
2023/01/12 05:31:53;;;;;;;8.03;3.37;;;;;;;-7.88;62.66;102267.44;1924402;74;21011;-42
2023/01/12 05:34:22;;;;;;;8.70;4.08;;;;;;;-7.76;62.53;102265.62;1924629;74;21113;-43
2023/01/12 05:36:50;;;;;;;18.17;6.58;;;;;;;-7.58;62.40;102267.50;1924515;74;21098;-43
2023/01/12 05:39:20;;;;;;;24.40;9.33;;;;;;;-7.41;62.19;102268.11;1923085;74;21051;-43
2023/01/12 05:44:35;;;;;;;8.48;3.55;;;;;;;-7.11;61.87;102266.84;1924445;74;21047;-43
2023/01/12 05:47:04;;;;;;;20.82;6.17;;;;;;;-6.91;61.67;102267.11;1924648;74;21023;-43
2023/01/12 05:49:33;;;;;;;3.60;3.30;;;;;;;-6.67;61.47;102271.03;1920275;74;21105;-42
2023/01/12 05:52:01;;;;;;;8.65;5.55;;;;;;;-6.37;61.27;102268.39;1924520;74;21495;-43
2023/01/12 05:54:30;;;;;;;10.03;4.95;;;;;;;-6.08;60.96;102263.96;1924506;74;21040;-43
2023/01/12 05:56:59;;;;;;;20.80;8.83;;;;;;;-5.87;60.48;102265.45;1924392;74;21115;-48
2023/01/12 05:59:27;;;;;;;13.30;6.65;;;;;;;-5.62;60.18;102271.06;1907054;74;21120;-48
2023/01/12 06:01:56;;;;;;;13.35;7.30;;;;;;;-5.41;59.75;102261.81;1888487;74;21083;-48
2023/01/12 06:04:25;;;;;;;35.00;5.17;;;;;;;-5.05;59.47;102264.94;1897438;75;21025;-50
2023/01/12 06:06:53;;;;;;;19.70;7.87;;;;;;;-4.60;59.06;102263.63;1875890;75;21039;-48
2023/01/12 06:09:22;;;;;;;20.40;6.30;;;;;;;-4.17;58.48;102259.19;1885954;74;21098;-46
2023/01/12 06:14:37;;;;;;;22.95;6.90;;;;;;;-3.06;57.41;102265.27;1902137;74;21025;-45
2023/01/12 06:17:05;;;;;;;10.75;6.58;;;;;;;-2.41;57.14;102255.42;1898070;75;21098;-46
2023/01/12 06:19:34;;;;;;;15.90;5.90;;;;;;;-1.91;56.87;102180.69;1888617;75;21052;-47
2023/01/12 06:22:03;;;;;;;17.20;5.83;;;;;;;-1.50;56.58;102250.11;1905090;75;21115;-45
2023/01/12 06:24:31;;;;;;;11.90;6.62;;;;;;;-1.08;56.09;102239.05;1905300;75;21499;-50
2023/01/12 06:27:00;;;;;;;15.15;6.85;;;;;;;-0.74;55.90;102248.30;1905108;74;21036;-48
2023/01/12 06:29:29;;;;;;;17.12;7.95;;;;;;;-0.26;55.66;102242.87;1888319;75;21032;-47
2023/01/12 06:31:57;;;;;;;12.28;6.53;;;;;;;0.43;55.32;102245.25;1879243;75;21130;-46
2023/01/12 06:34:33;;;;;;;16.67;7.87;;;;;;;1.05;54.99;102237.30;1874705;75;21114;-44
2023/01/12 06:36:57;;;;;;;19.42;8.73;;;;;;;1.52;54.65;102238.41;1872307;76;21079;-44
2023/01/12 06:39:26;;;;;;;23.67;8.33;;;;;;;1.92;54.32;102243.17;1872614;76;21114;-44
2023/01/12 06:44:41;;;;;;;25.23;7.53;;;;;;;2.51;53.49;102231.33;1873608;75;21073;-48
2023/01/12 06:47:10;;;;;;;21.30;9.25;;;;;;;3.03;53.09;102229.59;1874768;75;21064;-45
2023/01/12 06:49:38;;;;;;;22.40;8.30;;;;;;;3.38;52.66;102233.17;1873188;75;21048;-47
2023/01/12 06:52:08;;;;;;;29.15;7.30;;;;;;;3.77;52.31;102231.97;1873653;75;21138;-49
2023/01/12 06:54:36;;;;;;;12.73;5.62;;;;;;;4.23;51.87;102237.73;1874816;75;21592;-48
2023/01/12 06:57:05;;;;;;;25.55;6.85;;;;;;;4.33;51.37;102227.41;1872726;77;21048;-44
2023/01/12 06:59:34;;;;;;;18.85;8.18;;;;;;;4.35;51.12;102232.20;1872529;77;21220;-45
2023/01/12 07:02:02;;;;;;;13.08;5.65;;;;;;;4.74;50.76;102227.83;1878947;75;21096;-45
2023/01/12 07:04:31;;;;;;;14.70;6.85;;;;;;;5.19;50.37;102230.78;1915885;74;21036;-47
2023/01/12 07:06:59;;;;;;;14.83;6.33;;;;;;;5.55;50.02;102225.34;1921758;74;21435;-46
2023/01/12 07:09:28;;;;;;;9.15;5.42;;;;;;;5.82;49.63;102215.47;1891345;76;21008;-46
2023/01/12 07:11:57;;;;;;;15.65;6.00;;;;;;;6.19;49.28;102213.02;1891319;76;21028;-46
2023/01/12 07:14:25;;;;;;;20.25;7.35;;;;;;;6.01;48.74;102214.27;1891260;75;21015;-46
2023/01/12 07:16:54;;;;;;;19.48;7.22;;;;;;;5.89;48.01;102213.77;1891292;75;21153;-43
2023/01/12 07:19:23;;;;;;;18.45;7.58;;;;;;;5.87;47.41;102212.89;1896951;74;21019;-45
2023/01/12 07:21:52;;;;;;;17.15;6.30;;;;;;;5.76;47.32;102216.31;1924362;74;21036;-44
2023/01/12 07:24:20;;;;;;;16.02;6.70;;;;;;;5.95;46.35;102216.39;1924395;74;21039;-46
2023/01/12 07:26:50;;;;;;;17.05;7.40;;;;;;;5.99;46.07;102211.23;1924672;74;21079;-43
2023/01/12 07:29:18;;;;;;;16.02;4.92;;;;;;;6.34;45.91;102216.09;1924473;74;21467;-45
2023/01/12 07:31:48;;;;;;;10.85;5.95;;;;;;;6.64;45.93;102205.23;1924499;74;21007;-44
2023/01/12 07:34:17;;;;;;;16.87;6.72;;;;;;;7.17;45.17;102209.59;1924489;74;21028;-44
2023/01/12 07:36:51;;;;;;;19.35;7.17;;;;;;;7.77;44.39;102208.58;1924558;74;21028;-45
2023/01/12 07:39:19;;;;;;;29.63;7.58;;;;;;;8.36;43.89;102210.02;1924860;74;21028;-43
2023/01/12 07:44:36;;;;;;;25.88;6.78;;;;;;;9.16;43.30;102203.29;1904112;74;21467;-44
2023/01/12 07:47:05;;;;;;;21.00;6.80;;;;;;;9.81;42.75;102200.80;1924601;74;21031;-48
2023/01/12 07:49:33;;;;;;;22.67;6.00;;;;;;;10.28;42.42;102196.67;1924461;74;21032;-44
2023/01/12 07:52:02;;;;;;;22.42;6.90;;;;;;;10.82;42.06;102191.45;1924594;74;21564;-44
2023/01/12 07:54:32;;;;;;;19.85;6.62;;;;;;;11.12;41.66;102187.88;1924571;74;21079;-47
2023/01/12 07:57:01;;;;;;;29.50;6.55;;;;;;;11.64;40.95;102189.07;1903589;74;21569;-47
2023/01/12 07:59:30;;;;;;;15.25;6.37;;;;;;;12.05;40.43;102187.38;1891670;76;21124;-45
2023/01/12 08:01:58;;;;;;;20.80;7.50;;;;;;;12.15;39.67;102186.25;1891330;76;21105;-41
2023/01/12 08:04:27;;;;;;;20.65;7.30;;;;;;;12.28;38.89;102185.09;1891373;75;21067;-44
2023/01/12 08:06:56;;;;;;;20.12;7.62;;;;;;;12.47;38.32;102177.59;1891397;75;21109;-43
2023/01/12 08:09:26;;;;;;;14.53;6.25;;;;;;;12.67;37.68;102178.44;1891446;75;21101;-43
2023/01/12 08:11:55;;;;;;;16.77;5.80;;;;;;;12.64;37.91;102178.50;1891522;75;21067;-41
2023/01/12 08:14:30;;;;;;;18.20;7.15;;;;;;;12.47;37.67;102175.42;1891336;76;21004;-42
2023/01/12 08:17:00;;;;;;;13.15;6.28;;;;;;;11.72;38.07;102175.29;1891416;76;21101;-43
2023/01/12 08:19:35;;;;;;;22.62;6.92;;;;;;;11.66;37.71;102164.88;1891407;75;21019;-41
2023/01/12 08:22:03;;;;;;;15.20;5.70;;;;;;;11.93;37.28;102159.04;1892546;74;21021;-45
2023/01/12 08:24:35;;;;;;;16.60;6.17;;;;;;;12.06;37.18;102157.42;1892599;74;21023;-46
2023/01/12 08:27:06;;;;;;;13.05;6.25;;;;;;;12.09;37.04;102150.77;1890996;75;21015;-43
2023/01/12 08:29:44;;;;;;;16.65;6.55;;;;;;;12.06;36.98;102148.19;1891519;76;21035;-45
2023/01/12 08:32:19;;;;;;;21.60;7.33;;;;;;;11.95;36.73;102147.98;1891549;76;21487;-45
2023/01/12 08:34:48;;;;;;;16.97;7.45;;;;;;;12.10;36.81;102153.38;1890656;75;21450;-47
2023/01/12 08:37:19;;;;;;;17.90;7.08;;;;;;;12.09;36.59;102151.63;1892100;74;21132;-47
2023/01/12 08:39:48;;;;;;;16.37;6.50;;;;;;;12.36;36.00;102147.94;1892640;74;21086;-49
2023/01/12 08:42:18;;;;;;;15.75;6.20;;;;;;;12.48;35.78;102144.11;1893533;74;21478;-45
2023/01/12 08:44:47;;;;;;;18.12;7.17;;;;;;;12.66;35.17;102134.41;1901806;74;21532;-47
2023/01/12 08:47:19;;;;;;;14.18;6.50;;;;;;;12.54;34.95;102142.63;1903022;74;21047;-48
2023/01/12 08:49:48;;;;;;;16.52;6.10;;;;;;;12.03;34.95;102146.49;1891985;74;21015;-44
2023/01/12 08:52:17;;;;;;;13.65;5.80;;;;;;;12.09;35.01;102140.20;1924622;74;21020;-48
2023/01/12 08:54:45;;;;;;;17.05;5.85;;;;;;;12.32;34.98;102140.53;1924533;74;21032;-49
2023/01/12 08:57:15;;;;;;;15.58;5.30;;;;;;;12.36;34.98;102136.91;1924624;74;21064;-49
2023/01/12 08:59:44;;;;;;;17.73;6.67;;;;;;;12.14;34.91;102133.05;1892873;74;21129;-47
2023/01/12 09:02:14;;;;;;;13.60;4.97;;;;;;;12.15;34.95;102128.16;1895263;74;21128;-46
2023/01/12 09:04:43;;;;;;;13.32;4.85;;;;;;;12.06;34.96;102127.06;1924410;74;21687;-47
2023/01/12 09:07:13;;;;;;;12.18;4.58;;;;;;;12.15;34.96;102130.80;1924545;74;21505;-48
2023/01/12 09:09:41;;;;;;;16.23;5.03;;;;;;;11.87;34.95;102128.77;1924681;74;21137;-44
2023/01/12 09:12:10;;;;;;;6.22;4.08;;;;;;;11.76;34.87;102129.45;1924055;74;21097;-44
2023/01/12 09:14:38;;;;;;;12.50;5.75;;;;;;;11.51;34.99;102133.05;1924568;74;21023;-46
2023/01/12 09:17:08;;;;;;;10.65;4.97;;;;;;;11.10;35.25;102120.25;1924447;74;21031;-46
2023/01/12 09:19:36;;;;;;;8.70;4.42;;;;;;;10.92;35.60;102118.40;1924741;74;21043;-49
2023/01/12 09:22:05;;;;;;;9.68;3.92;;;;;;;11.08;35.67;102125.55;1924510;74;21466;-51
2023/01/12 09:24:34;;;;;;;12.43;4.70;;;;;;;11.46;35.36;102126.57;1924573;74;21060;-50
2023/01/12 09:27:02;;;;;;;12.05;4.35;;;;;;;12.02;34.85;102124.08;1924660;74;21051;-48
2023/01/12 09:29:31;;;;;;;10.78;4.67;;;;;;;12.08;34.62;102119.55;1924418;74;21093;-50
2023/01/12 09:32:00;;;;;;;15.85;5.95;;;;;;;12.09;34.65;102117.30;1923305;74;21544;-47
2023/01/12 09:34:28;;;;;;;12.47;7.30;;;;;;;11.57;34.87;102116.66;1924537;74;21020;-49
2023/01/12 09:37:00;;;;;;;15.75;8.28;;;;;;;10.63;35.57;102117.14;1922198;74;21111;-47
2023/01/12 09:39:29;;;;;;;13.72;7.15;;;;;;;10.07;36.34;102120.64;1892658;74;21091;-50
2023/01/12 09:47:49;;;;;;;8.95;4.60;;;;;;;10.36;36.31;102107.92;1900760;74;21017;-50
2023/01/12 09:50:26;;;;;;;13.10;4.80;;;;;;;10.76;35.95;102103.30;1904849;74;21218;-49
2023/01/12 09:53:04;;;;;;;9.80;4.72;;;;;;;11.07;35.63;102101.88;1924321;74;21032;-50
2023/01/12 09:55:35;;;;;;;12.65;5.60;;;;;;;11.37;35.14;102106.52;1911244;74;21069;-49
2023/01/12 09:58:30;;;;;;;15.20;5.65;;;;;;;11.49;34.94;102101.89;1908964;74;21102;-48
2023/01/12 10:01:01;;;;;;;10.70;4.87;;;;;;;11.16;35.09;102110.47;1912383;74;21580;-50
2023/01/12 10:03:34;;;;;;;22.67;8.05;;;;;;;11.19;35.43;102098.56;1897698;74;21051;-50
2023/01/12 10:06:03;;;;;;;16.48;6.03;;;;;;;11.18;35.34;102095.95;1924338;74;21188;-48
2023/01/12 10:08:40;;;;;;;13.62;6.00;;;;;;;11.17;35.41;102102.96;1924673;74;21121;-49
2023/01/12 10:11:12;;;;;;;12.23;5.60;;;;;;;10.88;35.52;102097.39;1924492;74;21024;-49
2023/01/12 10:13:59;;;;;;;10.80;4.65;;;;;;;10.57;36.00;102092.69;1896135;74;21043;-51
2023/01/12 10:17:05;;;;;;;15.58;5.62;;;;;;;10.46;36.13;102092.88;1908070;74;21133;-47
2023/01/12 10:19:48;;;;;;;12.82;5.47;;;;;;;10.14;36.31;102094.66;1891886;74;21532;-50
2023/01/12 10:22:38;;;;;;;15.75;7.10;;;;;;;10.33;36.14;102090.89;1892140;74;21083;-48
2023/01/12 10:25:26;;;;;;;13.18;6.17;;;;;;;10.47;35.97;102088.47;1891472;76;21109;-48
2023/01/12 10:27:57;;;;;;;10.32;4.40;;;;;;;10.59;35.88;102085.17;1855689;77;21093;-49
2023/01/12 10:30:36;;;;;;;11.18;5.58;;;;;;;10.88;35.50;102086.42;1846291;78;21040;-48
2023/01/12 10:33:14;;;;;;;12.33;6.00;;;;;;;10.81;35.25;102089.61;1848921;76;21023;-50
2023/01/12 10:36:04;;;;;;;10.93;3.75;;;;;;;11.11;35.10;102089.91;1846348;78;21860;-47
2023/01/12 10:38:38;;;;;;;9.63;5.03;;;;;;;11.42;34.72;102089.73;1846256;78;21134;-49
2023/01/12 10:41:13;;;;;;;12.15;5.37;;;;;;;11.17;34.84;102091.56;1843284;78;21055;-49
2023/01/12 10:43:44;;;;;;;12.82;4.85;;;;;;;11.15;35.09;102091.58;1847625;76;21063;-49
2023/01/12 10:46:18;;;;;;;8.88;4.87;;;;;;;10.85;35.31;102085.61;1846372;78;21087;-50
2023/01/12 10:48:49;;;;;;;9.00;4.90;;;;;;;10.46;35.82;102086.71;1846274;78;21043;-50
2023/01/12 10:51:26;;;;;;;13.15;4.97;;;;;;;9.79;36.40;102080.27;1845888;78;21059;-50
2023/01/12 10:54:10;;;;;;;10.63;4.50;;;;;;;9.36;37.20;102084.80;1847633;77;21066;-50
2023/01/12 10:56:44;;;;;;;12.07;5.47;;;;;;;9.07;37.54;102082.06;1846472;78;21051;-51
2023/01/12 10:59:20;;;;;;;15.58;5.35;;;;;;;8.76;38.03;102091.59;1844727;78;21118;-44
2023/01/12 11:02:07;;;;;;;11.45;5.33;;;;;;;8.59;38.26;102089.55;1846222;78;21044;-49
2023/01/12 11:04:41;;;;;;;9.45;4.70;;;;;;;8.29;38.49;102090.22;1847820;76;21087;-49
2023/01/12 11:07:24;;;;;;;9.90;4.83;;;;;;;8.20;38.60;102085.04;1806726;78;21576;-49
2023/01/12 11:09:54;;;;;;;8.75;4.47;;;;;;;8.15;38.67;102092.07;1882032;76;21125;-50
2023/01/12 11:12:31;;;;;;;9.08;4.40;;;;;;;8.10;38.74;102085.11;1882188;75;21559;-49
2023/01/12 11:15:05;;;;;;;10.53;4.67;;;;;;;8.13;38.74;102086.83;1882002;75;21038;-46
2023/01/12 11:17:59;;;;;;;11.38;4.62;;;;;;;8.12;38.83;102082.48;1879066;76;21035;-46
2023/01/12 11:20:47;;;;;;;11.88;4.87;;;;;;;8.09;38.93;102082.05;1882309;76;21023;-49
2023/01/12 11:23:22;;;;;;;10.60;4.85;;;;;;;8.05;39.09;102076.40;1880907;76;21148;-49
2023/01/12 11:25:53;;;;;;;9.58;4.78;;;;;;;7.94;39.24;102070.36;1879678;76;21035;-49
2023/01/12 11:28:28;;;;;;;10.50;4.12;;;;;;;7.79;39.37;102065.22;1882286;76;21018;-48
2023/01/12 11:31:02;;;;;;;14.60;5.83;;;;;;;7.73;39.54;102072.24;1882172;76;21038;-48
2023/01/12 11:33:49;;;;;;;19.55;4.10;;;;;;;7.68;39.65;102077.94;1882117;76;21120;-49
2023/01/12 11:36:26;;;;;;;10.90;5.00;;;;;;;7.52;39.60;102074.97;1880308;76;21513;-47
2023/01/12 11:38:58;;;;;;;11.05;5.17;;;;;;;7.44;39.84;102070.22;1882055;75;21974;-45
2023/01/12 11:44:53;;;;;;;11.55;5.05;;;;;;;7.58;39.84;102076.69;1882012;76;21026;-50
2023/01/12 11:47:30;;;;;;;10.85;4.50;;;;;;;7.55;39.90;102063.17;1882063;76;21101;-47
2023/01/12 11:50:28;;;;;;;11.00;4.72;;;;;;;7.56;40.04;102067.52;1882228;76;21094;-48
2023/01/12 11:52:57;;;;;;;15.20;4.83;;;;;;;7.49;40.20;102065.83;1882155;76;21477;-47
2023/01/12 11:55:32;;;;;;;15.00;5.70;;;;;;;7.35;40.32;102065.43;1882081;75;21477;-50
2023/01/12 11:58:22;;;;;;;8.83;4.50;;;;;;;7.26;40.58;102061.98;1881443;76;21035;-49
2023/01/12 12:01:02;;;;;;;12.50;5.95;;;;;;;7.11;41.13;102064.23;1882223;76;21034;-49
2023/01/12 12:03:50;;;;;;;7.72;4.50;;;;;;;7.02;41.37;102068.19;1881240;76;21481;-46
2023/01/12 12:06:34;;;;;;;13.00;4.40;;;;;;;6.82;41.56;102075.64;1890885;74;21447;-49
2023/01/12 12:09:12;;;;;;;16.95;4.40;;;;;;;6.55;41.86;102073.52;1923022;74;21180;-45
2023/01/12 12:11:43;;;;;;;11.80;5.37;;;;;;;6.45;41.90;102068.28;1898643;74;21048;-50
2023/01/12 12:14:27;;;;;;;12.78;4.92;;;;;;;6.48;41.93;102074.39;1910574;74;21089;-49
2023/01/12 12:17:02;;;;;;;12.18;4.90;;;;;;;6.46;42.08;102068.30;1919638;74;21097;-47
2023/01/12 12:19:56;;;;;;;12.37;4.92;;;;;;;6.51;42.02;102076.12;1924523;74;21039;-47
2023/01/12 12:22:42;;;;;;;11.93;4.75;;;;;;;6.42;42.08;102069.17;1918994;74;21557;-48
2023/01/12 12:25:17;;;;;;;10.48;4.40;;;;;;;6.28;42.24;102080.07;1890071;74;21049;-47